createdAt,value
2022-11-15T00:00:54.186Z,20.20
2022-11-15T00:03:40.215Z,20.75
2022-11-15T00:06:26.634Z,19.40
2022-11-15T00:09:12.793Z,20.25
2022-11-15T00:11:58.525Z,20.27
2022-11-15T00:14:44.367Z,20.02
2022-11-15T00:17:30.982Z,19.63
2022-11-15T00:20:17.215Z,20.65
2022-11-15T00:23:05.582Z,19.52
2022-11-15T00:25:59.203Z,19.90
2022-11-15T00:28:45.702Z,19.50
2022-11-15T00:31:31.385Z,19.90
2022-11-15T00:34:17.121Z,19.65
2022-11-15T00:37:03.052Z,19.52
2022-11-15T00:39:49.503Z,19.02
2022-11-15T00:42:35.204Z,19.15
2022-11-15T00:45:21.017Z,18.75
2022-11-15T00:48:09.746Z,18.77
2022-11-15T00:50:55.558Z,19.15
2022-11-15T00:53:41.363Z,18.15
2022-11-15T00:56:27.348Z,18.42
2022-11-15T00:59:13.255Z,18.25
2022-11-15T01:01:58.324Z,18.80
2022-11-15T01:04:44.154Z,17.70
2022-11-15T01:07:29.334Z,17.88
2022-11-15T01:10:17.076Z,17.27
2022-11-15T01:13:03.136Z,18.13
2022-11-15T01:15:48.983Z,18.35
2022-11-15T01:18:35.285Z,18.08
2022-11-15T01:21:21.571Z,18.25
2022-11-15T01:24:07.803Z,18.35
2022-11-15T01:26:53.793Z,18.27
2022-11-15T01:29:39.883Z,18.45
2022-11-15T01:32:25.526Z,17.98
2022-11-15T01:35:11.715Z,17.95
2022-11-15T01:37:57.208Z,18.20
2022-11-15T01:40:42.894Z,18.55
2022-11-15T01:43:32.343Z,18.30
2022-11-15T01:46:36.877Z,17.58
2022-11-15T01:49:24.805Z,17.38
2022-11-15T01:52:17.864Z,17.80
2022-11-15T01:55:12.059Z,17.88
2022-11-15T01:58:05.391Z,18.77
2022-11-15T02:00:51.509Z,17.80
2022-11-15T02:04:01.877Z,17.13
2022-11-15T02:06:49.430Z,16.80
2022-11-15T02:09:37.803Z,17.65
2022-11-15T02:12:23.657Z,17.70
2022-11-15T02:15:09.851Z,17.25
2022-11-15T02:18:00.915Z,17.75
2022-11-15T02:21:07.090Z,17.48
2022-11-15T02:24:20.745Z,17.33
2022-11-15T02:27:12.377Z,17.45
2022-11-15T02:30:16.190Z,16.90
2022-11-15T02:33:08.662Z,16.27
2022-11-15T02:35:59.477Z,17.08
2022-11-15T02:39:20.782Z,16.90
2022-11-15T02:45:24.327Z,16.80
2022-11-15T02:48:12.145Z,17.27
2022-11-15T02:50:58.597Z,17.30
2022-11-15T02:53:43.910Z,17.17
2022-11-15T02:56:29.427Z,16.85
2022-11-15T02:59:53.024Z,17.60
2022-11-15T03:03:00.398Z,17.30
2022-11-15T03:05:58.046Z,17.50
2022-11-15T03:09:11.864Z,17.23
2022-11-15T03:12:35.520Z,17.20
2022-11-15T03:15:38.404Z,17.60
2022-11-15T03:18:34.573Z,16.90
2022-11-15T03:21:22.204Z,16.58
2022-11-15T03:24:09.732Z,16.40
2022-11-15T03:26:56.949Z,16.52
2022-11-15T03:29:48.883Z,16.80
2022-11-15T03:32:39.861Z,16.50
2022-11-15T03:35:28.585Z,16.90
2022-11-15T03:38:23.827Z,16.80
2022-11-15T03:41:19.511Z,16.20
2022-11-15T03:44:17.628Z,16.77
2022-11-15T03:47:28.491Z,17.67
2022-11-15T03:50:20.698Z,16.65
2022-11-15T03:53:06.371Z,16.63
2022-11-15T03:55:51.731Z,16.85
2022-11-15T03:58:37.057Z,16.58
2022-11-15T04:01:22.556Z,16.80
2022-11-15T04:04:07.916Z,17.27
2022-11-15T04:06:53.238Z,16.80
2022-11-15T04:10:04.730Z,17.08
2022-11-15T04:12:50.404Z,16.55
2022-11-15T04:15:36.027Z,16.73
2022-11-15T04:18:21.329Z,17.25
2022-11-15T04:21:26.434Z,16.80
2022-11-15T04:24:14.395Z,16.92
2022-11-15T04:26:59.670Z,17.20
2022-11-15T04:29:45.177Z,16.73
2022-11-15T04:32:30.666Z,17.48
2022-11-15T04:35:16.030Z,16.38
2022-11-15T04:38:02.695Z,16.30
2022-11-15T04:40:47.857Z,16.20
2022-11-15T04:43:33.510Z,16.52
2022-11-15T04:46:19.138Z,16.65
2022-11-15T04:49:04.405Z,15.90
2022-11-15T04:51:50.516Z,16.80
2022-11-15T04:54:35.711Z,16.00
2022-11-15T04:57:21.072Z,16.95
2022-11-15T05:00:09.428Z,17.30
2022-11-15T05:03:13.425Z,17.50
2022-11-15T05:06:00.058Z,16.25
2022-11-15T05:08:45.431Z,16.40
2022-11-15T05:11:30.747Z,16.52
2022-11-15T05:14:16.615Z,16.55
2022-11-15T05:17:02.295Z,16.10
2022-11-15T05:19:47.543Z,14.77
2022-11-15T05:22:33.125Z,16.25
2022-11-15T05:25:19.348Z,16.10
2022-11-15T05:28:04.508Z,15.23
2022-11-15T05:30:50.126Z,16.13
2022-11-15T05:33:37.126Z,15.88
2022-11-15T05:36:39.938Z,14.52
2022-11-15T05:39:27.022Z,15.40
2022-11-15T05:42:16.520Z,15.40
2022-11-15T05:45:04.229Z,14.85
2022-11-15T05:47:51.576Z,14.82
2022-11-15T05:50:40.542Z,15.38
2022-11-15T05:53:27.174Z,15.05
2022-11-15T05:56:13.560Z,15.30
2022-11-15T05:59:00.298Z,15.88
2022-11-15T06:01:46.131Z,15.55
2022-11-15T06:04:31.411Z,15.85
2022-11-15T06:07:16.991Z,14.43
2022-11-15T06:10:02.683Z,14.30
2022-11-15T06:12:48.041Z,14.77
2022-11-15T06:15:35.358Z,14.95
2022-11-15T06:18:21.146Z,16.02
2022-11-15T06:21:07.083Z,16.45
2022-11-15T06:23:52.622Z,15.60
2022-11-15T06:26:38.077Z,15.70
2022-11-15T06:29:23.473Z,15.85
2022-11-15T06:32:08.717Z,16.98
2022-11-15T06:34:54.355Z,16.55
2022-11-15T06:37:41.880Z,15.52
2022-11-15T06:40:27.417Z,16.90
2022-11-15T06:43:13.056Z,16.65
2022-11-15T06:46:03.135Z,17.52
2022-11-15T06:48:48.835Z,16.67
2022-11-15T06:51:34.055Z,16.65
2022-11-15T06:54:19.576Z,16.13
2022-11-15T06:57:08.008Z,20.23
2022-11-15T06:59:53.594Z,17.25
2022-11-15T07:02:39.033Z,17.85
2022-11-15T07:05:24.546Z,17.92
2022-11-15T07:08:10.661Z,16.98
2022-11-15T07:10:59.854Z,16.55
2022-11-15T07:13:44.983Z,17.00
2022-11-15T07:16:30.198Z,16.60
2022-11-15T07:19:15.613Z,17.25
2022-11-15T07:22:00.989Z,18.17
2022-11-15T07:24:46.494Z,17.27
2022-11-15T07:27:32.125Z,17.98
2022-11-15T07:30:17.418Z,17.63
2022-11-15T07:33:02.867Z,17.45
2022-11-15T07:35:51.385Z,17.30
2022-11-15T07:38:42.495Z,17.38
2022-11-15T07:41:28.614Z,17.52
2022-11-15T07:44:14.531Z,16.38
2022-11-15T07:46:59.943Z,16.85
2022-11-15T07:49:47.057Z,17.40
2022-11-15T07:52:32.143Z,16.65
2022-11-15T07:55:17.487Z,16.08
2022-11-15T07:58:08.647Z,17.40
2022-11-15T08:00:53.654Z,16.42
2022-11-15T08:03:39.564Z,16.33
2022-11-15T08:06:25.162Z,15.85
2022-11-15T08:09:10.611Z,17.10
2022-11-15T08:11:55.977Z,17.25
2022-11-15T08:14:41.438Z,18.10
2022-11-15T08:17:26.973Z,17.70
2022-11-15T08:20:12.622Z,18.10
2022-11-15T08:22:59.539Z,18.10
2022-11-15T08:25:44.836Z,17.50
2022-11-15T08:28:30.692Z,17.48
2022-11-15T08:31:18.791Z,16.85
2022-11-15T08:34:05.395Z,17.35
2022-11-15T08:36:50.758Z,17.48
2022-11-15T08:39:36.125Z,16.05
2022-11-15T08:42:21.365Z,16.30
2022-11-15T08:45:08.328Z,15.40
2022-11-15T08:47:54.566Z,15.75
2022-11-15T08:50:44.061Z,15.48
2022-11-15T08:53:29.528Z,15.20
2022-11-15T08:56:16.306Z,15.95
2022-11-15T08:59:01.624Z,15.70
2022-11-15T09:01:47.072Z,15.63
2022-11-15T09:04:32.414Z,14.73
2022-11-15T09:07:18.057Z,15.40
2022-11-15T09:10:04.263Z,16.00
2022-11-15T09:12:49.625Z,15.43
2022-11-15T09:15:35.324Z,16.83
2022-11-15T09:18:23.410Z,15.90
2022-11-15T09:21:09.886Z,15.13
2022-11-15T09:23:55.450Z,15.23
2022-11-15T09:26:41.384Z,16.05
2022-11-15T09:29:27.041Z,15.15
2022-11-15T09:32:12.689Z,15.50
2022-11-15T09:34:58.594Z,15.80
2022-11-15T09:37:44.137Z,15.93
2022-11-15T09:40:32.172Z,15.70
2022-11-15T09:43:40.703Z,15.40
2022-11-15T09:46:44.265Z,15.27
2022-11-15T09:49:43.182Z,15.52
2022-11-15T09:52:19.667Z,14.68
2022-11-15T09:54:55.123Z,14.40
2022-11-15T09:57:31.393Z,14.60
2022-11-15T10:00:31.082Z,15.10
2022-11-15T10:02:51.231Z,15.63
2022-11-15T10:05:25.085Z,14.60
2022-11-15T10:08:14.837Z,14.20
2022-11-15T10:10:47.985Z,15.15
2022-11-15T10:13:30.856Z,15.25
2022-11-15T10:16:11.702Z,14.40
2022-11-15T10:19:11.916Z,14.82
2022-11-15T10:21:53.441Z,15.32
2022-11-15T10:24:25.062Z,15.20
2022-11-15T10:26:51.841Z,15.52
2022-11-15T10:29:26.891Z,15.55
2022-11-15T10:31:54.143Z,15.30
2022-11-15T10:34:23.422Z,15.80
2022-11-15T10:36:57.451Z,14.27
2022-11-15T10:39:24.770Z,14.43
2022-11-15T10:41:51.917Z,14.95
2022-11-15T10:44:19.564Z,14.68
2022-11-15T10:47:07.851Z,14.48
2022-11-15T10:49:35.812Z,14.60
2022-11-15T10:52:21.232Z,15.02
2022-11-15T10:55:01.140Z,14.80
2022-11-15T10:57:31.778Z,14.85
2022-11-15T11:00:08.620Z,14.95
2022-11-15T11:02:37.150Z,15.75
2022-11-15T11:05:25.507Z,13.90
2022-11-15T11:08:05.877Z,14.93
2022-11-15T11:10:50.915Z,14.07
2022-11-15T11:13:26.271Z,14.73
2022-11-15T11:16:14.785Z,15.65
2022-11-15T11:18:47.365Z,14.45
2022-11-15T11:21:46.399Z,15.25
2022-11-15T11:24:18.248Z,15.38
2022-11-15T11:26:59.120Z,14.98
2022-11-15T11:29:42.613Z,15.07
2022-11-15T11:32:35.528Z,15.13
2022-11-15T11:35:25.754Z,14.07
2022-11-15T11:37:58.835Z,14.90
2022-11-15T11:40:44.458Z,14.25
2022-11-15T11:43:45.417Z,13.35
2022-11-15T11:46:21.404Z,13.63
2022-11-15T11:49:14.979Z,13.98
2022-11-15T11:52:08.797Z,13.65
2022-11-15T11:54:46.660Z,14.05
2022-11-15T11:57:30.801Z,12.80
2022-11-15T12:00:06.171Z,13.57
2022-11-15T12:03:08.837Z,12.50
2022-11-15T12:05:43.105Z,12.23
2022-11-15T12:08:36.933Z,12.88
2022-11-15T12:11:18.515Z,12.35
2022-11-15T12:13:49.200Z,13.45
2022-11-15T12:16:21.224Z,12.95
2022-11-15T12:18:54.652Z,13.45
2022-11-15T12:21:38.672Z,12.75
2022-11-15T12:24:19.797Z,12.25
2022-11-15T12:27:04.673Z,12.90
2022-11-15T12:29:53.930Z,12.68
2022-11-15T12:32:33.957Z,12.10
2022-11-15T12:35:02.930Z,11.60
2022-11-15T12:37:45.136Z,12.88
2022-11-15T12:40:34.634Z,11.45
2022-11-15T12:43:16.655Z,11.88
2022-11-15T12:45:45.940Z,12.75
2022-11-15T12:48:19.121Z,12.60
2022-11-15T12:50:51.845Z,12.77
2022-11-15T12:53:28.735Z,12.88
2022-11-15T12:56:17.731Z,13.25
2022-11-15T12:59:03.437Z,12.90
2022-11-15T13:01:51.492Z,12.18
2022-11-15T13:04:22.616Z,11.88
2022-11-15T13:07:01.999Z,11.85
2022-11-15T13:09:35.244Z,11.60
2022-11-15T13:12:15.960Z,11.70
2022-11-15T13:14:47.270Z,11.95
2022-11-15T13:17:19.699Z,12.07
2022-11-15T13:19:58.247Z,12.45
2022-11-15T13:22:43.976Z,12.23
2022-11-15T13:25:40.857Z,12.20
2022-11-15T13:28:16.574Z,12.00
2022-11-15T13:30:59.096Z,12.05
2022-11-15T13:33:35.926Z,12.35
2022-11-15T13:36:25.977Z,13.50
2022-11-15T13:39:03.276Z,12.60
2022-11-15T13:41:33.873Z,11.57
2022-11-15T13:44:02.695Z,13.18
2022-11-15T13:46:34.113Z,12.20
2022-11-15T13:49:03.834Z,12.95
2022-11-15T13:51:50.416Z,12.15
2022-11-15T13:54:24.844Z,13.15
2022-11-15T13:56:57.010Z,12.82
2022-11-15T13:59:30.236Z,12.40
2022-11-15T14:02:22.718Z,12.48
2022-11-15T14:04:54.877Z,12.90
2022-11-15T14:07:25.341Z,12.50
2022-11-15T14:09:52.775Z,12.70
2022-11-15T14:12:33.283Z,13.07
2022-11-15T14:15:03.784Z,12.80
2022-11-15T14:17:30.523Z,11.38
2022-11-15T14:19:58.621Z,13.85
2022-11-15T14:22:30.599Z,12.93
2022-11-15T14:25:16.340Z,13.38
2022-11-15T14:27:45.460Z,13.48
2022-11-15T14:30:17.508Z,13.85
2022-11-15T14:32:50.783Z,13.35
2022-11-15T14:35:22.041Z,13.85
2022-11-15T14:37:54.238Z,13.60
2022-11-15T14:40:23.975Z,13.20
2022-11-15T14:42:51.214Z,13.07
2022-11-15T14:45:20.297Z,14.10
2022-11-15T14:47:47.358Z,15.18
2022-11-15T14:50:16.425Z,13.65
2022-11-15T14:52:44.314Z,13.20
2022-11-15T14:55:33.576Z,13.13
2022-11-15T14:58:00.566Z,14.27
2022-11-15T15:00:32.364Z,14.30
2022-11-15T15:03:03.630Z,14.88
2022-11-15T15:05:38.456Z,14.60
2022-11-15T15:08:07.018Z,14.52
2022-11-15T15:10:40.734Z,13.75
2022-11-15T15:13:19.708Z,13.65
2022-11-15T15:15:47.580Z,14.13
2022-11-15T15:18:14.469Z,15.50
2022-11-15T15:20:42.814Z,15.15
2022-11-15T15:23:18.540Z,14.77
2022-11-15T15:25:46.700Z,15.05
2022-11-15T15:28:14.574Z,13.90
2022-11-15T15:30:41.652Z,14.40
2022-11-15T15:33:08.497Z,14.82
2022-11-15T15:35:36.710Z,14.23
2022-11-15T15:38:04.484Z,15.88
2022-11-15T15:40:33.810Z,14.30
2022-11-15T15:43:01.076Z,14.10
2022-11-15T15:45:28.841Z,14.02
2022-11-15T15:47:56.161Z,14.65
2022-11-15T15:50:24.676Z,15.13
2022-11-15T15:52:54.035Z,14.02
2022-11-15T15:55:21.099Z,14.20
2022-11-15T15:57:48.616Z,14.88
2022-11-15T16:00:16.321Z,14.30
2022-11-15T16:02:43.718Z,14.43
2022-11-15T16:05:11.693Z,13.82
2022-11-15T16:07:38.636Z,14.00
2022-11-15T16:10:19.670Z,12.02
2022-11-15T16:12:47.733Z,13.82
2022-11-15T16:15:14.785Z,14.55
2022-11-15T16:17:53.922Z,13.60
2022-11-15T16:20:40.498Z,14.35
2022-11-15T16:23:09.972Z,14.18
2022-11-15T16:25:43.439Z,14.27
2022-11-15T16:28:26.038Z,14.95
2022-11-15T16:31:09.933Z,14.40
2022-11-15T16:33:37.676Z,14.70
2022-11-15T16:36:06.301Z,13.77
2022-11-15T16:38:34.012Z,13.85
2022-11-15T16:41:01.751Z,13.68
2022-11-15T16:43:28.656Z,13.45
2022-11-15T16:45:55.744Z,13.38
2022-11-15T16:48:25.580Z,13.55
2022-11-15T16:50:56.952Z,13.15
2022-11-15T16:53:24.230Z,13.70
2022-11-15T16:55:51.112Z,13.52
2022-11-15T16:58:17.939Z,13.65
2022-11-15T17:00:44.838Z,13.32
2022-11-15T17:03:12.018Z,13.07
2022-11-15T17:05:38.831Z,13.65
2022-11-15T17:08:06.536Z,13.27
2022-11-15T17:10:33.313Z,13.77
2022-11-15T17:13:00.543Z,13.38
2022-11-15T17:15:27.754Z,14.48
2022-11-15T17:17:55.411Z,14.02
2022-11-15T17:20:25.545Z,14.40
2022-11-15T17:22:53.057Z,14.17
2022-11-15T17:25:20.508Z,14.75
2022-11-15T17:27:47.408Z,13.40
2022-11-15T17:30:20.251Z,13.80
2022-11-15T17:32:50.151Z,14.02
2022-11-15T17:35:16.921Z,14.95
2022-11-15T17:37:43.910Z,14.15
2022-11-15T17:40:11.230Z,14.65
2022-11-15T17:42:41.185Z,13.18
2022-11-15T17:45:10.440Z,13.48
2022-11-15T17:47:37.828Z,14.40
2022-11-15T17:50:04.940Z,15.18
2022-11-15T17:52:31.747Z,15.07
2022-11-15T17:54:58.536Z,14.77
2022-11-15T17:57:25.864Z,14.93
2022-11-15T17:59:52.777Z,14.90
2022-11-15T18:02:19.635Z,15.35
2022-11-15T18:04:46.485Z,15.35
2022-11-15T18:07:14.188Z,18.80
2022-11-15T18:09:44.100Z,17.27
2022-11-15T18:12:12.162Z,15.27
2022-11-15T18:14:39.351Z,15.98
2022-11-15T18:17:06.720Z,15.25
2022-11-15T18:19:33.797Z,15.25
2022-11-15T18:22:01.550Z,17.02
2022-11-15T18:24:42.919Z,14.45
2022-11-15T18:27:10.251Z,14.50
2022-11-15T18:29:38.179Z,14.98
2022-11-15T18:32:11.799Z,13.88
2022-11-15T18:34:41.367Z,15.10
2022-11-15T18:37:08.150Z,14.65
2022-11-15T18:39:35.328Z,14.88
2022-11-15T18:42:02.498Z,14.25
2022-11-15T18:44:30.431Z,15.30
2022-11-15T18:46:57.554Z,14.20
2022-11-15T18:49:24.434Z,15.85
2022-11-15T18:51:51.231Z,15.18
2022-11-15T18:54:19.381Z,15.52
2022-11-15T18:56:47.090Z,14.88
2022-11-15T18:59:14.849Z,15.32
2022-11-15T19:01:44.251Z,14.75
2022-11-15T19:04:13.588Z,15.50
2022-11-15T19:06:42.460Z,15.88
2022-11-15T19:09:11.129Z,15.70
2022-11-15T19:11:40.118Z,15.30
2022-11-15T19:14:09.533Z,16.02
2022-11-15T19:16:52.353Z,15.45
2022-11-15T19:19:25.205Z,15.85
2022-11-15T19:21:52.976Z,15.50
2022-11-15T19:24:19.838Z,15.25
2022-11-15T19:26:47.105Z,15.90
2022-11-15T19:29:14.289Z,16.40
2022-11-15T19:31:41.991Z,16.25
2022-11-15T19:34:09.388Z,16.40
2022-11-15T19:36:43.627Z,16.45
2022-11-15T19:39:13.148Z,16.58
2022-11-15T19:41:42.602Z,16.70
2022-11-15T19:44:11.500Z,16.88
2022-11-15T19:46:39.367Z,16.80
2022-11-15T19:49:08.131Z,16.50
2022-11-15T19:51:34.948Z,18.98
2022-11-15T19:54:06.438Z,17.85
2022-11-15T19:56:34.619Z,20.23
2022-11-15T19:59:02.246Z,18.85
2022-11-15T20:01:32.331Z,18.90
2022-11-15T20:04:00.413Z,17.67
2022-11-15T20:06:30.889Z,18.67
2022-11-15T20:08:58.906Z,16.05
2022-11-15T20:11:27.570Z,17.65
2022-11-15T20:13:58.672Z,17.85
2022-11-15T20:18:53.319Z,17.90
2022-11-15T20:21:21.775Z,17.83
2022-11-15T20:23:50.942Z,17.73
2022-11-15T20:26:19.319Z,18.23
2022-11-15T20:28:48.186Z,19.55
2022-11-15T20:31:15.584Z,19.67
2022-11-15T20:33:42.382Z,19.20
2022-11-15T20:36:15.666Z,19.35
2022-11-15T20:38:43.816Z,18.48
2022-11-15T20:41:11.899Z,18.23
2022-11-15T20:43:38.774Z,19.13
2022-11-15T20:46:05.632Z,19.00
2022-11-15T20:48:32.845Z,19.75
2022-11-15T20:51:14.507Z,19.90
2022-11-15T20:53:43.400Z,19.80
2022-11-15T20:56:16.210Z,19.88
2022-11-15T20:58:44.777Z,20.15
2022-11-15T21:01:15.236Z,20.00
2022-11-15T21:03:42.361Z,19.67
2022-11-15T21:06:10.035Z,19.45
2022-11-15T21:08:56.025Z,18.95
2022-11-15T21:11:43.489Z,19.02
2022-11-15T21:14:10.281Z,19.40
2022-11-15T21:16:38.139Z,19.25
2022-11-15T21:19:06.572Z,19.50
2022-11-15T21:21:34.087Z,19.50
2022-11-15T21:24:06.773Z,19.50
2022-11-15T21:26:34.504Z,18.90
2022-11-15T21:29:02.005Z,14.55
2022-11-15T21:31:29.334Z,15.20
2022-11-15T21:33:56.075Z,15.30
2022-11-15T21:36:25.093Z,14.40
2022-11-15T21:38:51.872Z,15.07
2022-11-15T21:41:18.674Z,15.05
2022-11-15T21:43:45.453Z,14.55
2022-11-15T21:46:12.203Z,15.30
2022-11-15T21:48:38.955Z,14.80
2022-11-15T21:51:08.428Z,15.52
2022-11-15T21:53:35.554Z,14.45
2022-11-15T21:56:03.497Z,14.82
2022-11-15T21:58:31.386Z,16.55
2022-11-15T22:01:17.499Z,14.85
2022-11-15T22:03:45.103Z,14.85
2022-11-15T22:06:17.424Z,14.93
2022-11-15T22:08:45.747Z,14.52
2022-11-15T22:11:12.854Z,15.50
2022-11-15T22:13:39.880Z,14.57
2022-11-15T22:16:07.467Z,14.40
2022-11-15T22:18:34.612Z,14.90
2022-11-15T22:21:04.536Z,14.70
2022-11-15T22:23:33.405Z,14.75
2022-11-15T22:26:01.147Z,14.93
2022-11-15T22:28:28.230Z,15.10
2022-11-15T22:30:55.422Z,14.80
2022-11-15T22:33:25.770Z,14.38
2022-11-15T22:35:53.387Z,14.18
2022-11-15T22:38:20.313Z,14.40
2022-11-15T22:40:47.383Z,14.68
2022-11-15T22:43:16.139Z,14.70
2022-11-15T22:45:51.797Z,14.30
2022-11-15T22:48:20.843Z,14.68
2022-11-15T22:50:47.982Z,14.60
2022-11-15T22:53:14.803Z,14.40
2022-11-15T22:55:42.137Z,14.43
2022-11-15T22:58:09.436Z,14.20
2022-11-15T23:00:36.752Z,14.73
2022-11-15T23:03:04.163Z,14.30
2022-11-15T23:05:31.143Z,14.73
2022-11-15T23:07:57.951Z,14.70
2022-11-15T23:10:43.494Z,14.00
2022-11-15T23:13:18.973Z,14.23
2022-11-15T23:16:09.788Z,13.85
2022-11-15T23:18:38.926Z,14.13
2022-11-15T23:21:14.469Z,13.80
2022-11-15T23:23:41.420Z,14.30
2022-11-15T23:26:08.637Z,14.10
2022-11-15T23:28:36.157Z,14.07
2022-11-15T23:31:26.345Z,14.13
2022-11-15T23:33:59.202Z,13.93
2022-11-15T23:36:28.008Z,13.73
2022-11-15T23:38:55.441Z,14.10
2022-11-15T23:41:23.904Z,13.32
2022-11-15T23:43:51.614Z,12.30
2022-11-15T23:46:18.618Z,12.82
2022-11-15T23:48:45.394Z,14.55
2022-11-15T23:51:12.263Z,14.60
2022-11-15T23:53:39.118Z,14.55
2022-11-15T23:56:15.210Z,14.85
2022-11-15T23:58:43.325Z,15.02
